Time;durP1;ratioP1;P1;durP2;ratioP2;P2;SDS_P1;SDS_P2;PMS_P1;PMS_P2;Temp;Humidity;BMP_temperature;BMP_pressure;BME280_temperature;BME280_humidity;BME280_pressure;Samples;Min_cycle;Max_cycle;Signal;HPM_P1;HPM_P2
2023/10/28 00:02:14;;;;;;;22.13;9.40;;;;;;;;;;5061762;28;20086;-66
2023/10/28 00:04:42;;;;;;;24.85;9.70;;;;;;;;;;5056642;28;20119;-66
2023/10/28 00:07:09;;;;;;;29.63;12.00;;;;;;;;;;5056677;28;20049;-67
2023/10/28 00:09:40;;;;;;;25.80;10.95;;;;;;;;;;5054444;28;20377;-66
2023/10/28 00:12:08;;;;;;;28.20;11.48;;;;;;;;;;5018912;28;1111800;-66
2023/10/28 00:14:35;;;;;;;37.13;13.15;;;;;;;;;;5057524;28;20041;-66
2023/10/28 00:17:04;;;;;;;29.17;11.55;;;;;;;;;;5060977;28;20145;-66
2023/10/28 00:19:32;;;;;;;31.48;13.15;;;;;;;;;;5058387;28;20041;-66
2023/10/28 00:21:59;;;;;;;34.42;13.50;;;;;;;;;;5062783;28;20485;-65
2023/10/28 00:24:26;;;;;;;29.85;13.02;;;;;;;;;;5061599;28;20404;-66
2023/10/28 00:26:56;;;;;;;33.90;14.10;;;;;;;;;;5060800;28;20119;-66
2023/10/28 00:29:24;;;;;;;31.08;13.43;;;;;;;;;;5054730;28;20076;-66
2023/10/28 00:31:51;;;;;;;38.90;15.25;;;;;;;;;;5060092;28;21020;-66
2023/10/28 00:34:19;;;;;;;44.55;15.15;;;;;;;;;;5064136;28;20048;-66
2023/10/28 00:36:46;;;;;;;38.30;15.15;;;;;;;;;;5054651;28;20049;-66
2023/10/28 00:39:13;;;;;;;34.58;14.80;;;;;;;;;;5056813;28;20149;-67
2023/10/28 00:41:42;;;;;;;37.08;15.98;;;;;;;;;;5063984;28;20045;-66
2023/10/28 00:44:10;;;;;;;48.03;17.08;;;;;;;;;;5052458;28;20446;-65
2023/10/28 00:46:38;;;;;;;41.67;16.38;;;;;;;;;;5056963;28;20056;-68
2023/10/28 00:49:06;;;;;;;42.88;16.45;;;;;;;;;;5062538;28;20060;-65
2023/10/28 00:51:33;;;;;;;45.90;15.88;;;;;;;;;;5066176;28;20052;-65
2023/10/28 00:54:01;;;;;;;36.25;15.60;;;;;;;;;;5067273;28;20396;-66
2023/10/28 00:56:28;;;;;;;33.35;15.43;;;;;;;;;;5064122;28;20048;-65
2023/10/28 00:58:55;;;;;;;40.20;16.77;;;;;;;;;;5065732;28;20063;-65
2023/10/28 01:01:24;;;;;;;40.22;17.17;;;;;;;;;;5057699;28;20053;-68
2023/10/28 01:03:51;;;;;;;36.17;16.08;;;;;;;;;;5055401;28;20051;-66
2023/10/28 01:06:18;;;;;;;41.63;16.42;;;;;;;;;;5056168;28;20056;-65
2023/10/28 01:08:45;;;;;;;39.30;15.38;;;;;;;;;;5060473;28;20065;-66
2023/10/28 01:11:14;;;;;;;34.42;15.85;;;;;;;;;;5061969;28;20059;-67
2023/10/28 01:13:41;;;;;;;40.97;15.80;;;;;;;;;;5059862;28;20056;-66
2023/10/28 01:16:09;;;;;;;32.03;16.33;;;;;;;;;;5058750;28;20063;-65
2023/10/28 01:18:37;;;;;;;35.28;15.32;;;;;;;;;;5060675;28;20044;-66
2023/10/28 01:21:11;;;;;;;43.25;16.92;;;;;;;;;;5056852;28;20052;-66
2023/10/28 01:23:38;;;;;;;38.58;16.05;;;;;;;;;;5058570;28;20415;-65
2023/10/28 01:26:05;;;;;;;39.95;16.23;;;;;;;;;;5057601;28;20057;-68
2023/10/28 01:28:33;;;;;;;40.50;15.60;;;;;;;;;;5052316;28;20059;-66
2023/10/28 01:31:01;;;;;;;40.50;16.98;;;;;;;;;;5054754;28;20404;-67
2023/10/28 01:33:28;;;;;;;41.70;16.05;;;;;;;;;;5059778;28;20052;-66
2023/10/28 01:35:55;;;;;;;38.25;16.58;;;;;;;;;;5057078;28;20113;-65
2023/10/28 01:38:24;;;;;;;39.58;15.73;;;;;;;;;;5057847;28;20045;-66
2023/10/28 01:40:52;;;;;;;39.65;16.77;;;;;;;;;;5060782;28;20044;-67
2023/10/28 01:43:19;;;;;;;42.13;15.20;;;;;;;;;;5060401;28;20057;-66
2023/10/28 01:45:46;;;;;;;37.70;16.35;;;;;;;;;;5063087;28;20057;-65
2023/10/28 01:48:14;;;;;;;42.97;17.20;;;;;;;;;;5059479;28;20049;-66
2023/10/28 01:50:42;;;;;;;40.53;16.30;;;;;;;;;;5056885;28;20664;-66
2023/10/28 01:53:09;;;;;;;39.55;16.23;;;;;;;;;;5060856;28;20483;-66
2023/10/28 01:55:39;;;;;;;32.33;14.90;;;;;;;;;;5066285;28;20460;-66
2023/10/28 01:58:07;;;;;;;36.03;16.50;;;;;;;;;;5052640;28;20088;-66
2023/10/28 02:00:34;;;;;;;34.70;15.65;;;;;;;;;;5058171;28;20057;-65
2023/10/28 02:03:02;;;;;;;35.20;14.88;;;;;;;;;;5061387;28;20040;-67
2023/10/28 02:05:29;;;;;;;35.40;15.55;;;;;;;;;;5054100;28;20052;-65
2023/10/28 02:07:56;;;;;;;34.88;15.20;;;;;;;;;;5059344;28;20041;-66
2023/10/28 02:10:23;;;;;;;35.60;14.27;;;;;;;;;;5058500;28;20455;-66
2023/10/28 02:12:52;;;;;;;36.58;14.05;;;;;;;;;;5052914;28;20110;-65
2023/10/28 02:15:20;;;;;;;39.35;15.05;;;;;;;;;;5056730;28;20057;-66
2023/10/28 02:17:48;;;;;;;41.70;15.38;;;;;;;;;;5060164;28;20044;-65
2023/10/28 02:20:16;;;;;;;36.58;15.25;;;;;;;;;;5055863;28;20158;-66
2023/10/28 02:22:43;;;;;;;36.95;14.15;;;;;;;;;;5051610;28;20080;-65
2023/10/28 02:25:10;;;;;;;35.08;14.48;;;;;;;;;;5055147;28;20132;-67
2023/10/28 02:27:38;;;;;;;36.75;14.40;;;;;;;;;;5057070;28;20051;-66
2023/10/28 02:30:08;;;;;;;36.72;14.77;;;;;;;;;;5055753;28;20048;-66
2023/10/28 02:32:35;;;;;;;31.50;14.13;;;;;;;;;;5058427;28;20057;-66
2023/10/28 02:35:02;;;;;;;37.03;14.82;;;;;;;;;;5053109;28;20052;-66
2023/10/28 02:37:30;;;;;;;35.90;13.70;;;;;;;;;;5060998;28;20100;-66
2023/10/28 02:39:57;;;;;;;38.00;14.40;;;;;;;;;;5068311;28;20047;-66
2023/10/28 02:42:24;;;;;;;34.75;13.85;;;;;;;;;;5063319;28;20052;-66
2023/10/28 02:44:52;;;;;;;32.72;13.00;;;;;;;;;;5055960;28;20045;-65
2023/10/28 02:47:20;;;;;;;36.35;14.63;;;;;;;;;;5057362;28;20052;-66
2023/10/28 02:49:48;;;;;;;35.17;13.48;;;;;;;;;;5053981;28;20048;-66
2023/10/28 02:52:15;;;;;;;30.88;13.20;;;;;;;;;;5057423;28;20049;-65
2023/10/28 02:54:42;;;;;;;28.70;12.55;;;;;;;;;;5059632;28;20048;-65
2023/10/28 02:57:09;;;;;;;26.45;12.48;;;;;;;;;;5070494;28;20134;-65
2023/10/28 02:59:37;;;;;;;32.00;13.35;;;;;;;;;;5064718;28;20037;-66
2023/10/28 03:02:04;;;;;;;27.80;13.27;;;;;;;;;;5060897;28;20071;-66
2023/10/28 03:04:32;;;;;;;26.45;12.02;;;;;;;;;;5059537;28;20052;-66
2023/10/28 03:07:00;;;;;;;28.10;12.70;;;;;;;;;;5059075;28;20049;-65
2023/10/28 03:09:27;;;;;;;28.55;12.15;;;;;;;;;;5057165;28;20041;-65
2023/10/28 03:11:54;;;;;;;27.98;11.90;;;;;;;;;;5061337;28;20056;-67
2023/10/28 03:14:22;;;;;;;29.88;10.90;;;;;;;;;;5056598;28;20061;-68
2023/10/28 03:16:49;;;;;;;27.38;11.50;;;;;;;;;;5057190;28;20048;-66
2023/10/28 03:19:16;;;;;;;26.55;11.23;;;;;;;;;;5056900;28;20048;-65
2023/10/28 03:21:45;;;;;;;24.88;11.57;;;;;;;;;;5056405;28;20044;-66
2023/10/28 03:24:12;;;;;;;27.88;11.38;;;;;;;;;;5054505;28;20076;-65
2023/10/28 03:26:39;;;;;;;25.83;11.65;;;;;;;;;;5060883;28;20060;-67
2023/10/28 03:29:06;;;;;;;27.23;10.52;;;;;;;;;;5065751;28;20052;-65
2023/10/28 03:31:34;;;;;;;25.77;11.10;;;;;;;;;;5061798;28;20049;-66
2023/10/28 03:34:05;;;;;;;28.67;10.90;;;;;;;;;;5066357;28;20049;-68
2023/10/28 03:36:32;;;;;;;27.77;9.18;;;;;;;;;;5056544;28;20061;-66
2023/10/28 03:39:01;;;;;;;25.92;10.55;;;;;;;;;;5053384;28;20053;-66
2023/10/28 03:41:28;;;;;;;18.63;9.88;;;;;;;;;;5057632;28;20055;-65
2023/10/28 03:43:55;;;;;;;24.23;10.27;;;;;;;;;;5061631;28;20381;-65
2023/10/28 03:46:25;;;;;;;23.77;10.25;;;;;;;;;;5061236;28;20048;-68
2023/10/28 03:48:52;;;;;;;23.98;11.00;;;;;;;;;;5063548;28;20041;-66
2023/10/28 03:51:19;;;;;;;33.13;10.52;;;;;;;;;;5060187;28;20193;-66
2023/10/28 03:53:46;;;;;;;19.90;10.35;;;;;;;;;;5055200;28;20052;-65
2023/10/28 03:56:15;;;;;;;30.70;11.30;;;;;;;;;;5059903;28;20052;-66
2023/10/28 03:58:42;;;;;;;22.00;9.77;;;;;;;;;;5056592;28;20045;-65
2023/10/28 04:01:10;;;;;;;24.83;10.75;;;;;;;;;;5061878;28;20146;-66
2023/10/28 04:03:37;;;;;;;25.27;10.50;;;;;;;;;;5056230;28;20049;-66
2023/10/28 04:06:04;;;;;;;19.65;9.20;;;;;;;;;;5056927;28;20049;-66
2023/10/28 04:08:32;;;;;;;24.00;9.93;;;;;;;;;;5058180;28;20048;-65
2023/10/28 04:10:59;;;;;;;22.00;9.38;;;;;;;;;;5063666;28;20495;-65
2023/10/28 04:13:27;;;;;;;21.52;10.10;;;;;;;;;;5060626;28;20460;-66
2023/10/28 04:15:55;;;;;;;20.08;9.68;;;;;;;;;;5056876;28;20645;-67
2023/10/28 04:18:22;;;;;;;16.70;9.07;;;;;;;;;;5054772;28;20045;-66
2023/10/28 04:20:50;;;;;;;26.40;10.38;;;;;;;;;;5068784;28;20128;-65
2023/10/28 04:23:18;;;;;;;22.00;9.02;;;;;;;;;;5058821;28;20403;-65
2023/10/28 04:25:45;;;;;;;20.90;9.50;;;;;;;;;;5060240;28;20049;-66
2023/10/28 04:28:12;;;;;;;18.15;9.10;;;;;;;;;;5065625;28;20127;-65
2023/10/28 04:30:41;;;;;;;18.42;8.90;;;;;;;;;;5055639;28;20071;-66
2023/10/28 04:33:08;;;;;;;15.77;8.25;;;;;;;;;;5061879;28;20401;-66
2023/10/28 04:35:36;;;;;;;18.90;8.93;;;;;;;;;;5060858;28;20610;-66
2023/10/28 04:38:03;;;;;;;25.27;9.80;;;;;;;;;;5060795;28;20123;-66
2023/10/28 04:40:31;;;;;;;20.65;9.00;;;;;;;;;;5055257;28;20060;-66
2023/10/28 04:43:01;;;;;;;25.27;9.52;;;;;;;;;;5060594;28;20047;-65
2023/10/28 04:45:28;;;;;;;20.92;8.55;;;;;;;;;;5057214;28;20447;-66
2023/10/28 04:47:56;;;;;;;22.30;9.82;;;;;;;;;;5061312;28;20044;-66
2023/10/28 04:50:24;;;;;;;19.00;8.63;;;;;;;;;;5053703;28;20045;-66
2023/10/28 04:52:51;;;;;;;22.17;9.55;;;;;;;;;;5056173;28;20412;-65
2023/10/28 04:55:18;;;;;;;20.13;8.95;;;;;;;;;;5059632;28;20057;-66
2023/10/28 04:57:46;;;;;;;20.25;9.40;;;;;;;;;;5056615;28;20044;-65
2023/10/28 05:00:16;;;;;;;24.45;8.85;;;;;;;;;;5060625;28;20048;-69
2023/10/28 05:02:44;;;;;;;20.10;9.90;;;;;;;;;;5059269;28;20048;-66
2023/10/28 05:05:13;;;;;;;21.48;9.25;;;;;;;;;;5059758;28;20072;-66
2023/10/28 05:07:41;;;;;;;21.63;9.00;;;;;;;;;;5058663;28;20055;-65
2023/10/28 05:10:09;;;;;;;16.00;8.30;;;;;;;;;;5056610;28;20485;-66
2023/10/28 05:12:38;;;;;;;19.27;8.32;;;;;;;;;;5059313;28;20075;-66
2023/10/28 05:15:07;;;;;;;24.73;9.65;;;;;;;;;;5056315;28;20055;-67
2023/10/28 05:17:34;;;;;;;24.42;9.18;;;;;;;;;;5050070;28;20056;-65
2023/10/28 05:20:01;;;;;;;24.98;9.13;;;;;;;;;;5055643;28;20583;-67
2023/10/28 05:22:30;;;;;;;27.30;9.07;;;;;;;;;;5052022;28;20055;-65
2023/10/28 05:24:57;;;;;;;23.58;9.98;;;;;;;;;;5060499;28;20063;-65
2023/10/28 05:27:24;;;;;;;24.65;9.00;;;;;;;;;;5060025;28;20056;-65
2023/10/28 05:29:51;;;;;;;25.17;8.70;;;;;;;;;;5057101;28;20063;-65
2023/10/28 05:32:19;;;;;;;26.90;10.00;;;;;;;;;;5057332;28;20368;-65
2023/10/28 05:34:46;;;;;;;23.70;10.15;;;;;;;;;;5061151;28;20048;-66
2023/10/28 05:37:13;;;;;;;27.48;10.82;;;;;;;;;;5059989;28;20056;-67
2023/10/28 05:39:42;;;;;;;26.40;10.00;;;;;;;;;;5056891;28;20044;-66
2023/10/28 05:42:11;;;;;;;22.58;10.35;;;;;;;;;;5054087;28;20045;-65
2023/10/28 05:44:38;;;;;;;21.83;10.07;;;;;;;;;;5061252;28;20080;-67
2023/10/28 05:47:07;;;;;;;29.73;10.27;;;;;;;;;;5053010;28;20049;-65
2023/10/28 05:49:34;;;;;;;29.05;10.68;;;;;;;;;;5051914;28;20052;-66
2023/10/28 05:52:01;;;;;;;21.27;9.90;;;;;;;;;;5058876;28;20056;-66
2023/10/28 05:54:29;;;;;;;32.70;10.10;;;;;;;;;;5057357;28;20049;-66
2023/10/28 05:56:58;;;;;;;30.40;11.07;;;;;;;;;;5061113;28;20048;-65
2023/10/28 05:59:25;;;;;;;27.92;10.48;;;;;;;;;;5057928;28;20056;-65
2023/10/28 06:01:53;;;;;;;25.55;10.18;;;;;;;;;;5055636;28;20500;-66
2023/10/28 06:04:21;;;;;;;25.15;9.63;;;;;;;;;;5060985;28;20044;-66
2023/10/28 06:06:48;;;;;;;30.80;9.43;;;;;;;;;;5057517;28;20075;-65
2023/10/28 06:09:16;;;;;;;24.58;9.55;;;;;;;;;;5057751;28;20065;-65
2023/10/28 06:11:43;;;;;;;26.20;8.80;;;;;;;;;;5056185;28;20436;-66
2023/10/28 06:14:12;;;;;;;34.03;10.70;;;;;;;;;;5056547;28;20076;-65
2023/10/28 06:16:39;;;;;;;28.67;10.73;;;;;;;;;;5053072;28;20052;-66
2023/10/28 06:19:07;;;;;;;27.40;10.48;;;;;;;;;;5055715;28;20106;-65
2023/10/28 06:21:34;;;;;;;24.05;10.73;;;;;;;;;;5055686;28;20488;-67
2023/10/28 06:24:02;;;;;;;27.60;10.43;;;;;;;;;;5058490;28;20064;-66
2023/10/28 06:26:29;;;;;;;31.20;12.15;;;;;;;;;;5062489;28;20057;-66
2023/10/28 06:28:59;;;;;;;27.80;10.77;;;;;;;;;;5061269;28;20396;-66
2023/10/28 06:31:28;;;;;;;25.88;11.20;;;;;;;;;;5062310;28;20480;-66
2023/10/28 06:33:55;;;;;;;30.80;11.63;;;;;;;;;;5060820;28;20426;-66
2023/10/28 06:36:22;;;;;;;26.08;11.55;;;;;;;;;;5059773;28;20053;-66
2023/10/28 06:38:49;;;;;;;30.85;11.73;;;;;;;;;;5057887;28;20049;-66
2023/10/28 06:41:17;;;;;;;27.98;11.88;;;;;;;;;;5062733;28;20040;-65
2023/10/28 06:43:46;;;;;;;29.90;12.25;;;;;;;;;;5063822;28;20075;-66
2023/10/28 06:46:13;;;;;;;26.33;11.70;;;;;;;;;;5061039;28;20041;-69
2023/10/28 06:48:41;;;;;;;31.00;12.20;;;;;;;;;;5061191;28;20049;-68
2023/10/28 06:51:12;;;;;;;30.40;12.07;;;;;;;;;;5059182;28;20049;-66
2023/10/28 06:53:40;;;;;;;24.83;11.27;;;;;;;;;;5061218;28;20534;-65
2023/10/28 06:56:08;;;;;;;37.10;11.88;;;;;;;;;;5062996;28;20056;-67
2023/10/28 06:58:35;;;;;;;26.83;11.23;;;;;;;;;;5057154;28;20055;-66
2023/10/28 07:01:04;;;;;;;26.88;10.95;;;;;;;;;;5058584;28;20465;-66
2023/10/28 07:03:31;;;;;;;30.50;12.10;;;;;;;;;;5061447;28;20049;-65
2023/10/28 07:06:00;;;;;;;36.67;10.68;;;;;;;;;;5063267;28;20492;-65
2023/10/28 07:08:27;;;;;;;28.33;12.05;;;;;;;;;;5061538;28;20049;-66
2023/10/28 07:10:54;;;;;;;35.70;11.85;;;;;;;;;;5064562;28;20072;-66
2023/10/28 07:13:21;;;;;;;37.65;11.77;;;;;;;;;;5060865;28;20484;-65
2023/10/28 07:15:49;;;;;;;27.10;10.82;;;;;;;;;;5057024;28;20456;-66
2023/10/28 07:18:18;;;;;;;24.73;10.50;;;;;;;;;;5057026;28;20057;-66
2023/10/28 07:20:45;;;;;;;27.17;10.85;;;;;;;;;;5061997;28;20447;-66
2023/10/28 07:23:14;;;;;;;22.85;10.07;;;;;;;;;;5059565;28;20055;-65
2023/10/28 07:25:44;;;;;;;25.05;10.45;;;;;;;;;;5064541;28;20346;-66
2023/10/28 07:28:14;;;;;;;28.60;10.05;;;;;;;;;;5059608;28;20130;-67
2023/10/28 07:30:45;;;;;;;22.85;9.95;;;;;;;;;;5054871;28;20051;-65
2023/10/28 07:33:13;;;;;;;25.55;10.18;;;;;;;;;;5060058;28;20498;-65
2023/10/28 07:35:44;;;;;;;20.92;9.00;;;;;;;;;;5058231;28;20106;-66
2023/10/28 07:38:12;;;;;;;21.40;9.27;;;;;;;;;;5056231;28;20488;-65
2023/10/28 07:40:41;;;;;;;26.05;9.18;;;;;;;;;;5055151;28;20053;-66
2023/10/28 07:43:09;;;;;;;21.50;9.43;;;;;;;;;;5057186;28;20487;-66
2023/10/28 07:45:36;;;;;;;17.98;8.15;;;;;;;;;;5057495;28;20041;-66
2023/10/28 07:48:04;;;;;;;19.60;9.10;;;;;;;;;;5058347;28;20048;-65
2023/10/28 07:50:31;;;;;;;20.77;7.90;;;;;;;;;;5061574;28;20098;-68
2023/10/28 07:52:58;;;;;;;22.83;8.43;;;;;;;;;;5058838;28;20045;-66
2023/10/28 07:55:25;;;;;;;21.88;8.57;;;;;;;;;;5061095;28;20388;-68
2023/10/28 07:57:54;;;;;;;18.67;7.82;;;;;;;;;;5056562;28;20550;-68
2023/10/28 08:00:22;;;;;;;21.25;8.70;;;;;;;;;;5059412;28;20052;-66
2023/10/28 08:02:49;;;;;;;18.02;8.20;;;;;;;;;;5055794;28;20044;-65
2023/10/28 08:05:17;;;;;;;16.88;8.05;;;;;;;;;;5055646;28;20059;-64
2023/10/28 08:07:44;;;;;;;18.65;8.35;;;;;;;;;;5058137;28;20053;-64
2023/10/28 08:10:11;;;;;;;16.02;7.78;;;;;;;;;;5058031;28;20045;-65
2023/10/28 08:12:39;;;;;;;18.70;8.23;;;;;;;;;;5068852;28;20110;-65
2023/10/28 08:15:09;;;;;;;16.13;7.60;;;;;;;;;;5057295;28;20048;-66
2023/10/28 08:17:36;;;;;;;19.17;7.25;;;;;;;;;;5058871;28;20484;-64
2023/10/28 08:20:04;;;;;;;16.17;6.95;;;;;;;;;;5060812;28;20044;-65
2023/10/28 08:22:31;;;;;;;13.38;7.03;;;;;;;;;;5063804;28;20049;-64
2023/10/28 08:24:58;;;;;;;15.88;7.03;;;;;;;;;;5063632;28;20056;-64
2023/10/28 08:27:25;;;;;;;14.90;6.57;;;;;;;;;;5055115;28;20060;-65
2023/10/28 08:29:55;;;;;;;14.20;6.43;;;;;;;;;;5056956;28;20056;-64
2023/10/28 08:32:23;;;;;;;13.35;5.88;;;;;;;;;;5053994;28;20095;-64
2023/10/28 08:34:53;;;;;;;14.15;6.13;;;;;;;;;;5059029;28;20053;-64
2023/10/28 08:37:21;;;;;;;16.02;5.80;;;;;;;;;;5057282;28;20550;-65
2023/10/28 08:39:48;;;;;;;12.65;5.85;;;;;;;;;;5059922;28;20116;-64
2023/10/28 08:42:17;;;;;;;11.20;4.85;;;;;;;;;;5065464;28;20392;-64
2023/10/28 08:44:44;;;;;;;13.23;5.43;;;;;;;;;;5063483;28;20114;-64
2023/10/28 08:47:12;;;;;;;10.38;5.40;;;;;;;;;;5056205;28;20514;-65
2023/10/28 08:49:42;;;;;;;14.00;5.60;;;;;;;;;;5053942;28;20243;-64
2023/10/28 08:52:11;;;;;;;14.45;5.70;;;;;;;;;;5057882;28;20055;-64
2023/10/28 08:54:38;;;;;;;13.23;5.15;;;;;;;;;;5054991;28;20103;-68
2023/10/28 08:57:06;;;;;;;12.63;5.50;;;;;;;;;;5058477;28;20568;-64
2023/10/28 08:59:33;;;;;;;14.18;4.93;;;;;;;;;;5058549;28;20075;-64
2023/10/28 09:02:01;;;;;;;14.80;5.80;;;;;;;;;;5055380;28;20103;-65
2023/10/28 09:04:28;;;;;;;11.63;5.03;;;;;;;;;;5050568;28;20049;-66
2023/10/28 09:06:59;;;;;;;12.50;5.10;;;;;;;;;;5059880;28;20058;-65
2023/10/28 09:09:28;;;;;;;15.65;5.78;;;;;;;;;;5055281;28;20500;-65
2023/10/28 09:11:57;;;;;;;11.77;4.65;;;;;;;;;;5061355;28;20053;-64
2023/10/28 09:14:24;;;;;;;11.05;4.97;;;;;;;;;;5053654;28;20049;-66
2023/10/28 09:16:51;;;;;;;12.48;5.57;;;;;;;;;;5059199;28;20052;-65
2023/10/28 09:19:20;;;;;;;11.10;4.80;;;;;;;;;;5055953;28;20041;-65
2023/10/28 09:21:48;;;;;;;13.77;5.32;;;;;;;;;;5061068;28;20045;-64
2023/10/28 09:24:17;;;;;;;10.40;4.90;;;;;;;;;;5059949;28;20396;-64
2023/10/28 09:26:46;;;;;;;10.63;5.45;;;;;;;;;;5060106;28;20056;-64
2023/10/28 09:29:23;;;;;;;16.58;5.38;;;;;;;;;;5057022;28;20490;-68
2023/10/28 09:31:51;;;;;;;9.40;5.60;;;;;;;;;;5060530;28;20416;-64
2023/10/28 09:34:19;;;;;;;10.38;5.25;;;;;;;;;;5064816;28;20051;-64
2023/10/28 09:36:46;;;;;;;13.25;5.63;;;;;;;;;;5052200;28;20113;-65
2023/10/28 09:39:14;;;;;;;11.18;5.50;;;;;;;;;;5060523;28;20062;-68
2023/10/28 09:41:43;;;;;;;14.82;6.15;;;;;;;;;;5057569;28;20127;-65
2023/10/28 09:44:12;;;;;;;14.38;5.60;;;;;;;;;;5052959;28;20045;-65
2023/10/28 09:46:39;;;;;;;11.30;5.47;;;;;;;;;;5060117;28;20060;-66
2023/10/28 09:49:09;;;;;;;11.80;5.15;;;;;;;;;;5050263;28;20052;-68
2023/10/28 09:51:39;;;;;;;11.20;5.00;;;;;;;;;;5055730;28;20135;-65
2023/10/28 09:54:11;;;;;;;10.77;4.70;;;;;;;;;;5056856;28;20383;-64
2023/10/28 09:56:39;;;;;;;9.20;4.63;;;;;;;;;;5061923;28;20491;-64
2023/10/28 09:59:12;;;;;;;7.03;4.40;;;;;;;;;;5055565;28;20051;-65
2023/10/28 10:01:44;;;;;;;7.25;4.00;;;;;;;;;;5054858;28;20076;-64
2023/10/28 10:04:14;;;;;;;7.80;4.13;;;;;;;;;;5059255;28;20057;-65
2023/10/28 10:06:42;;;;;;;8.25;4.50;;;;;;;;;;5060536;28;20055;-65
2023/10/28 10:09:12;;;;;;;15.10;4.65;;;;;;;;;;5066394;28;20053;-65
2023/10/28 10:11:42;;;;;;;11.10;4.63;;;;;;;;;;5065064;28;20052;-64
2023/10/28 10:14:12;;;;;;;8.38;4.28;;;;;;;;;;5067426;28;20446;-64
2023/10/28 10:16:45;;;;;;;6.72;4.15;;;;;;;;;;5066906;28;20056;-64
2023/10/28 10:19:14;;;;;;;6.50;3.85;;;;;;;;;;5069067;28;20092;-64
2023/10/28 10:21:49;;;;;;;9.77;4.18;;;;;;;;;;5065833;28;20066;-66
2023/10/28 10:24:17;;;;;;;8.63;4.13;;;;;;;;;;5064220;28;20040;-66
2023/10/28 10:26:54;;;;;;;16.95;3.92;;;;;;;;;;5057347;28;20052;-64
2023/10/28 10:29:23;;;;;;;10.80;4.32;;;;;;;;;;5061751;28;20457;-64
2023/10/28 10:31:52;;;;;;;9.68;4.18;;;;;;;;;;5063378;28;20052;-64
2023/10/28 10:34:33;;;;;;;6.00;4.00;;;;;;;;;;5063164;28;20048;-65
2023/10/28 10:37:01;;;;;;;11.23;4.00;;;;;;;;;;5057982;28;20059;-64
2023/10/28 10:39:28;;;;;;;8.38;3.85;;;;;;;;;;5062829;28;20044;-65
2023/10/28 10:41:56;;;;;;;8.77;3.80;;;;;;;;;;5058241;28;20443;-65
2023/10/28 10:44:25;;;;;;;6.50;3.78;;;;;;;;;;5055879;28;20040;-64
2023/10/28 10:46:52;;;;;;;6.35;3.35;;;;;;;;;;5060737;28;20053;-65
2023/10/28 10:49:19;;;;;;;8.90;3.70;;;;;;;;;;5063040;28;20040;-65
2023/10/28 10:51:47;;;;;;;11.30;3.47;;;;;;;;;;5062249;28;20072;-64
2023/10/28 10:54:14;;;;;;;12.55;3.53;;;;;;;;;;5058317;28;20052;-65
2023/10/28 10:56:41;;;;;;;10.10;4.07;;;;;;;;;;5056107;28;20064;-65
2023/10/28 10:59:09;;;;;;;7.45;3.40;;;;;;;;;;5057877;28;20048;-66
2023/10/28 11:01:39;;;;;;;9.45;3.90;;;;;;;;;;5056823;28;20053;-64
2023/10/28 11:04:06;;;;;;;11.23;3.92;;;;;;;;;;5057718;28;20045;-65
2023/10/28 11:06:35;;;;;;;11.20;3.75;;;;;;;;;;5059081;28;20060;-65
2023/10/28 11:09:03;;;;;;;10.65;3.60;;;;;;;;;;5062065;28;20087;-65
2023/10/28 11:11:35;;;;;;;8.20;3.42;;;;;;;;;;5055257;28;20068;-67
2023/10/28 11:14:03;;;;;;;5.63;3.20;;;;;;;;;;5058909;28;20044;-65
2023/10/28 11:16:30;;;;;;;8.70;3.53;;;;;;;;;;5063413;28;20076;-67
2023/10/28 11:18:59;;;;;;;9.38;3.30;;;;;;;;;;5060675;28;20049;-64
2023/10/28 11:21:28;;;;;;;9.85;3.80;;;;;;;;;;5066363;28;20056;-68
2023/10/28 11:23:56;;;;;;;15.70;3.92;;;;;;;;;;5056080;28;20044;-65
2023/10/28 11:26:24;;;;;;;10.45;3.42;;;;;;;;;;5066451;28;20048;-64
2023/10/28 11:28:52;;;;;;;8.20;3.42;;;;;;;;;;5060020;28;20063;-64
2023/10/28 11:31:20;;;;;;;11.60;3.25;;;;;;;;;;5063706;28;20067;-67
2023/10/28 11:33:52;;;;;;;9.38;3.38;;;;;;;;;;5065928;28;20394;-64
2023/10/28 11:36:20;;;;;;;9.60;3.30;;;;;;;;;;5055918;28;20044;-65
2023/10/28 11:38:48;;;;;;;16.27;3.70;;;;;;;;;;5059519;28;20041;-64
2023/10/28 11:41:15;;;;;;;8.98;3.40;;;;;;;;;;5055684;28;20504;-63
2023/10/28 11:43:42;;;;;;;10.50;3.42;;;;;;;;;;5055492;28;20476;-65
2023/10/28 11:46:09;;;;;;;5.70;3.10;;;;;;;;;;5064629;28;20063;-65
2023/10/28 11:48:38;;;;;;;15.40;3.40;;;;;;;;;;5061039;28;20049;-63
2023/10/28 11:51:05;;;;;;;18.92;4.30;;;;;;;;;;5064482;28;20055;-64
2023/10/28 11:53:35;;;;;;;8.32;3.65;;;;;;;;;;5056762;28;20813;-64
2023/10/28 11:56:02;;;;;;;7.50;3.90;;;;;;;;;;5060702;28;20102;-64
2023/10/28 11:58:29;;;;;;;11.32;3.95;;;;;;;;;;5053232;28;20056;-64
2023/10/28 12:00:56;;;;;;;14.63;3.65;;;;;;;;;;5059860;28;20052;-63
2023/10/28 12:03:25;;;;;;;9.52;3.50;;;;;;;;;;5064851;28;20375;-65
2023/10/28 12:05:52;;;;;;;6.43;3.58;;;;;;;;;;5059277;28;20051;-63
2023/10/28 12:08:20;;;;;;;12.75;3.80;;;;;;;;;;5061957;28;20047;-64
2023/10/28 12:10:48;;;;;;;11.20;3.92;;;;;;;;;;5063899;28;20048;-63
2023/10/28 12:13:17;;;;;;;11.10;3.72;;;;;;;;;;5061428;28;20067;-65
2023/10/28 12:15:45;;;;;;;14.27;3.83;;;;;;;;;;5056556;28;20063;-63
2023/10/28 12:18:12;;;;;;;13.82;4.10;;;;;;;;;;5057043;28;20044;-63
2023/10/28 12:20:40;;;;;;;11.90;3.70;;;;;;;;;;5057905;28;20057;-63
2023/10/28 12:23:09;;;;;;;11.23;3.88;;;;;;;;;;5064829;28;20037;-65
2023/10/28 12:25:36;;;;;;;9.95;3.75;;;;;;;;;;5057421;28;20056;-63
2023/10/28 12:28:05;;;;;;;7.25;3.30;;;;;;;;;;5061228;28;20048;-63
2023/10/28 12:30:32;;;;;;;10.00;3.45;;;;;;;;;;5065271;28;20538;-63
2023/10/28 12:33:00;;;;;;;8.88;3.67;;;;;;;;;;5057291;28;20496;-63
2023/10/28 12:35:27;;;;;;;8.75;3.08;;;;;;;;;;5058660;28;20080;-63
2023/10/28 12:37:55;;;;;;;11.13;3.47;;;;;;;;;;5058609;28;20059;-65
2023/10/28 12:40:22;;;;;;;11.80;3.63;;;;;;;;;;5056836;28;20052;-63
2023/10/28 12:42:49;;;;;;;12.40;3.35;;;;;;;;;;5059201;28;20408;-64
2023/10/28 12:45:18;;;;;;;13.07;3.38;;;;;;;;;;5062841;28;20053;-64
2023/10/28 12:47:45;;;;;;;8.20;3.45;;;;;;;;;;5061600;28;20397;-65
2023/10/28 12:50:16;;;;;;;11.30;3.75;;;;;;;;;;5056821;28;20045;-64
2023/10/28 12:52:44;;;;;;;7.65;3.17;;;;;;;;;;5063309;28;20044;-64
2023/10/28 12:55:11;;;;;;;6.13;2.60;;;;;;;;;;5057896;28;20052;-63
2023/10/28 12:57:38;;;;;;;8.32;2.33;;;;;;;;;;5054192;28;20049;-63
2023/10/28 13:00:10;;;;;;;5.65;2.80;;;;;;;;;;5057945;28;20044;-63
2023/10/28 13:02:38;;;;;;;12.30;3.20;;;;;;;;;;5062105;28;20484;-63
2023/10/28 13:05:06;;;;;;;4.03;2.53;;;;;;;;;;5059987;28;20055;-64
2023/10/28 13:07:34;;;;;;;9.93;3.00;;;;;;;;;;5054117;28;20048;-65
2023/10/28 13:10:01;;;;;;;7.60;2.85;;;;;;;;;;5058150;28;20045;-66
2023/10/28 13:12:29;;;;;;;10.18;3.45;;;;;;;;;;5058861;28;20053;-64
2023/10/28 13:14:56;;;;;;;9.38;2.85;;;;;;;;;;5060612;28;20053;-64
2023/10/28 13:17:23;;;;;;;5.10;2.53;;;;;;;;;;5060705;28;20408;-63
2023/10/28 13:19:52;;;;;;;9.63;2.45;;;;;;;;;;5058511;28;20057;-63
2023/10/28 13:22:20;;;;;;;7.97;2.95;;;;;;;;;;5058556;28;20509;-64
2023/10/28 13:24:48;;;;;;;8.25;3.30;;;;;;;;;;5062222;28;20048;-64
2023/10/28 13:27:15;;;;;;;11.15;3.15;;;;;;;;;;5059757;28;20450;-64
2023/10/28 13:29:43;;;;;;;9.23;2.25;;;;;;;;;;5062898;28;20041;-64
2023/10/28 13:32:10;;;;;;;5.88;2.28;;;;;;;;;;5061155;28;20122;-64
2023/10/28 13:34:38;;;;;;;6.45;2.20;;;;;;;;;;5062869;28;20552;-65
2023/10/28 13:37:07;;;;;;;7.25;2.33;;;;;;;;;;5058718;28;20399;-64
2023/10/28 13:39:35;;;;;;;4.88;2.22;;;;;;;;;;5061827;28;20134;-64
2023/10/28 13:42:02;;;;;;;10.48;3.45;;;;;;;;;;5059810;28;20041;-64
2023/10/28 13:44:30;;;;;;;6.53;1.92;;;;;;;;;;5054597;28;20403;-64
2023/10/28 13:46:57;;;;;;;8.07;2.10;;;;;;;;;;5054045;28;20045;-64
2023/10/28 13:49:24;;;;;;;5.30;1.98;;;;;;;;;;5054015;28;20480;-64
2023/10/28 13:51:52;;;;;;;5.38;1.92;;;;;;;;;;5060330;28;20048;-64
2023/10/28 13:54:21;;;;;;;7.60;1.83;;;;;;;;;;5054693;28;20048;-64
2023/10/28 13:56:48;;;;;;;6.00;2.10;;;;;;;;;;5059784;28;20127;-64
2023/10/28 13:59:15;;;;;;;5.72;1.95;;;;;;;;;;5054282;28;20057;-65
2023/10/28 14:01:43;;;;;;;5.03;2.28;;;;;;;;;;5052934;28;20088;-64
2023/10/28 14:04:11;;;;;;;9.15;1.90;;;;;;;;;;5060198;28;20055;-64
2023/10/28 14:06:38;;;;;;;5.57;2.00;;;;;;;;;;5063565;28;20044;-66
2023/10/28 14:09:06;;;;;;;5.72;1.80;;;;;;;;;;5060876;28;20064;-64
2023/10/28 14:11:34;;;;;;;5.45;1.90;;;;;;;;;;5060738;28;20060;-64
2023/10/28 14:14:02;;;;;;;6.00;1.70;;;;;;;;;;5068435;28;20045;-65
2023/10/28 14:16:29;;;;;;;9.88;2.40;;;;;;;;;;5061425;28;20484;-63
2023/10/28 14:18:58;;;;;;;10.32;2.05;;;;;;;;;;5062850;28;20500;-65
2023/10/28 14:21:25;;;;;;;4.22;2.00;;;;;;;;;;5057583;28;20056;-65
2023/10/28 14:23:54;;;;;;;7.93;2.20;;;;;;;;;;5061633;28;20049;-65
2023/10/28 14:26:21;;;;;;;9.27;2.22;;;;;;;;;;5063057;28;20053;-67
2023/10/28 14:28:50;;;;;;;7.80;1.75;;;;;;;;;;5063186;28;20040;-65
2023/10/28 14:31:17;;;;;;;9.45;2.15;;;;;;;;;;5062525;28;20047;-63
2023/10/28 14:33:44;;;;;;;11.18;2.28;;;;;;;;;;5057374;28;20075;-64